createdAt,value
2019-04-07T00:00:43.865Z,8.90
2019-04-07T00:03:11.785Z,8.90
2019-04-07T00:05:39.717Z,8.80
2019-04-07T00:08:07.667Z,8.80
2019-04-07T00:10:35.727Z,8.80
2019-04-07T00:13:04.037Z,8.80
2019-04-07T00:15:32.115Z,8.90
2019-04-07T00:18:00.532Z,8.90
2019-04-07T00:20:28.515Z,9.00
2019-04-07T00:22:56.418Z,9.00
2019-04-07T00:25:25.056Z,9.00
2019-04-07T00:27:52.980Z,8.90
2019-04-07T00:30:21.174Z,8.80
2019-04-07T00:32:49.057Z,8.80
2019-04-07T00:35:26.361Z,8.80
2019-04-07T00:37:46.749Z,8.70
2019-04-07T00:40:14.742Z,8.70
2019-04-07T00:42:42.900Z,8.70
2019-04-07T00:45:10.848Z,8.70
2019-04-07T00:47:38.865Z,8.60
2019-04-07T00:50:06.752Z,8.60
2019-04-07T00:52:34.952Z,8.60
2019-04-07T00:55:03.433Z,8.50
2019-04-07T00:57:31.684Z,8.40
2019-04-07T00:59:59.520Z,8.40
2019-04-07T01:02:27.637Z,8.40
2019-04-07T01:04:56.130Z,8.40
2019-04-07T01:07:24.539Z,8.30
2019-04-07T01:09:53.045Z,8.30
2019-04-07T01:12:21.397Z,8.30
2019-04-07T01:14:49.441Z,8.20
2019-04-07T01:17:17.896Z,8.20
2019-04-07T01:19:45.888Z,8.10
2019-04-07T01:22:14.403Z,8.10
2019-04-07T01:24:42.993Z,8.10
2019-04-07T01:27:11.522Z,8.00
2019-04-07T01:29:39.994Z,8.00
2019-04-07T01:32:08.095Z,7.90
2019-04-07T01:34:36.630Z,7.90
2019-04-07T01:37:04.518Z,7.80
2019-04-07T01:39:32.429Z,7.80
2019-04-07T01:42:02.609Z,7.80
2019-04-07T01:44:32.370Z,7.80
2019-04-07T01:47:20.134Z,7.70
2019-04-07T01:50:02.134Z,7.70
2019-04-07T01:52:38.159Z,7.70
2019-04-07T01:55:20.256Z,7.60
2019-04-07T01:57:49.886Z,7.60
2019-04-07T02:00:19.472Z,7.60
2019-04-07T02:02:54.596Z,7.60
2019-04-07T02:05:24.144Z,7.60
2019-04-07T02:07:53.939Z,7.60
2019-04-07T02:10:24.019Z,7.50
2019-04-07T02:12:53.739Z,7.50
2019-04-07T02:15:23.997Z,7.50
2019-04-07T02:17:53.675Z,7.40
2019-04-07T02:20:41.291Z,7.40
2019-04-07T02:23:10.861Z,7.40
2019-04-07T02:25:43.853Z,7.40
2019-04-07T02:28:13.445Z,7.40
2019-04-07T02:30:54.724Z,7.30
2019-04-07T02:33:33.424Z,7.30
2019-04-07T02:36:16.018Z,7.30
2019-04-07T02:38:50.580Z,7.30
2019-04-07T02:41:32.517Z,7.30
2019-04-07T02:44:04.981Z,7.30
2019-04-07T02:46:35.174Z,7.40
2019-04-07T02:49:08.211Z,7.30
2019-04-07T02:51:43.769Z,7.30
2019-04-07T02:54:15.987Z,7.30
2019-04-07T02:56:54.293Z,7.30
2019-04-07T02:59:39.678Z,7.20
2019-04-07T03:02:08.083Z,7.20
2019-04-07T03:04:47.460Z,7.20
2019-04-07T03:07:17.664Z,7.20
2019-04-07T03:10:00.197Z,7.10
2019-04-07T03:12:46.602Z,7.10
2019-04-07T03:15:17.123Z,7.10
2019-04-07T03:17:47.669Z,7.10
2019-04-07T03:20:17.463Z,7.10
2019-04-07T03:22:47.112Z,7.00
2019-04-07T03:25:20.591Z,7.00
2019-04-07T03:27:52.834Z,7.00
2019-04-07T03:30:27.550Z,7.00
2019-04-07T03:33:02.201Z,7.00
2019-04-07T03:35:43.765Z,7.00
2019-04-07T03:38:22.533Z,7.00
2019-04-07T03:41:03.914Z,7.00
2019-04-07T03:43:49.434Z,6.90
2019-04-07T03:46:28.433Z,6.90
2019-04-07T03:48:58.144Z,6.90
2019-04-07T03:51:43.968Z,6.90
2019-04-07T03:54:31.733Z,6.90
2019-04-07T03:57:04.743Z,6.90
2019-04-07T03:59:37.142Z,6.90
2019-04-07T04:02:22.528Z,6.90
2019-04-07T04:04:52.113Z,6.80
2019-04-07T04:07:29.902Z,6.80
2019-04-07T04:09:53.660Z,6.80
2019-04-07T04:12:23.263Z,6.80
2019-04-07T04:14:52.810Z,6.80
2019-04-07T04:17:21.053Z,6.90
2019-04-07T04:19:49.583Z,6.90
2019-04-07T04:22:18.505Z,7.00
2019-04-07T04:24:47.060Z,7.00
2019-04-07T04:27:15.097Z,7.00
2019-04-07T04:29:43.578Z,7.10
2019-04-07T04:32:11.552Z,7.10
2019-04-07T04:34:39.464Z,7.00
2019-04-07T04:37:08.074Z,7.00
2019-04-07T04:39:36.024Z,7.00
2019-04-07T04:42:05.355Z,6.90
2019-04-07T04:44:33.504Z,6.90
2019-04-07T04:47:01.856Z,6.90
2019-04-07T04:49:30.807Z,6.90
2019-04-07T04:51:58.763Z,6.90
2019-04-07T04:54:26.635Z,7.00
2019-04-07T04:56:54.550Z,7.00
2019-04-07T04:59:22.644Z,7.00
2019-04-07T05:01:51.274Z,6.90
2019-04-07T05:04:19.362Z,7.00
2019-04-07T05:06:47.850Z,7.00
2019-04-07T05:09:16.118Z,7.00
2019-04-07T05:11:44.475Z,7.00
2019-04-07T05:14:12.566Z,7.00
2019-04-07T05:16:40.867Z,7.00
2019-04-07T05:19:10.175Z,7.10
2019-04-07T05:21:39.434Z,7.10
2019-04-07T05:24:07.421Z,7.20
2019-04-07T05:26:35.292Z,7.20
2019-04-07T05:29:03.340Z,7.20
2019-04-07T05:31:31.242Z,7.30
2019-04-07T05:34:00.294Z,7.30
2019-04-07T05:36:28.341Z,7.30
2019-04-07T05:38:56.326Z,7.40
2019-04-07T05:41:24.298Z,7.40
2019-04-07T05:43:52.498Z,7.50
2019-04-07T05:46:20.430Z,7.60
2019-04-07T05:48:50.494Z,7.70
2019-04-07T05:51:17.827Z,7.80
2019-04-07T05:53:47.439Z,7.90
2019-04-07T05:56:15.178Z,7.90
2019-04-07T05:58:43.878Z,8.00
2019-04-07T06:01:11.902Z,8.10
2019-04-07T06:03:42.831Z,8.20
2019-04-07T06:06:09.409Z,8.30
2019-04-07T06:08:39.919Z,8.40
2019-04-07T06:11:06.931Z,8.50
2019-04-07T06:13:35.497Z,8.70
2019-04-07T06:16:04.180Z,8.80
2019-04-07T06:18:34.122Z,8.90
2019-04-07T06:21:01.713Z,9.00
2019-04-07T06:23:30.704Z,9.10
2019-04-07T06:26:00.016Z,9.20
2019-04-07T06:28:28.236Z,9.30
2019-04-07T06:30:59.399Z,9.40
2019-04-07T06:33:25.568Z,9.50
2019-04-07T06:35:55.136Z,9.60
2019-04-07T06:38:31.256Z,9.70
2019-04-07T06:40:55.897Z,9.90
2019-04-07T06:43:22.351Z,10.00
2019-04-07T06:45:55.011Z,10.10
2019-04-07T06:48:22.946Z,10.20
2019-04-07T06:50:57.886Z,10.40
2019-04-07T06:53:23.717Z,10.50
2019-04-07T06:55:53.958Z,10.60
2019-04-07T06:58:26.589Z,10.80
2019-04-07T07:01:05.662Z,10.90
2019-04-07T07:03:38.992Z,11.10
2019-04-07T07:06:15.092Z,11.20
2019-04-07T07:08:47.452Z,11.30
2019-04-07T07:11:31.069Z,11.50
2019-04-07T07:14:09.506Z,11.60
2019-04-07T07:16:43.838Z,11.80
2019-04-07T07:19:16.275Z,11.90
2019-04-07T07:21:45.792Z,12.00
2019-04-07T07:24:15.684Z,12.20
2019-04-07T07:26:44.087Z,12.30
2019-04-07T07:29:14.665Z,12.40
2019-04-07T07:31:41.687Z,12.60
2019-04-07T07:34:11.072Z,12.70
2019-04-07T07:36:40.739Z,12.90
2019-04-07T07:39:11.777Z,13.00
2019-04-07T07:41:38.889Z,13.10
2019-04-07T07:44:08.637Z,13.30
2019-04-07T07:46:36.483Z,13.40
2019-04-07T07:49:04.367Z,13.50
2019-04-07T07:51:32.306Z,13.60
2019-04-07T07:54:01.807Z,13.70
2019-04-07T07:56:30.252Z,13.80
2019-04-07T07:59:00.795Z,13.90
2019-04-07T08:01:27.802Z,13.90
2019-04-07T08:03:55.885Z,14.00
2019-04-07T08:06:24.043Z,14.20
2019-04-07T08:08:52.586Z,14.30
2019-04-07T08:11:20.557Z,14.40
2019-04-07T08:13:48.552Z,14.50
2019-04-07T08:16:16.487Z,14.60
2019-04-07T08:18:46.386Z,14.60
2019-04-07T08:21:16.538Z,14.70
2019-04-07T08:23:45.392Z,14.80
2019-04-07T08:26:13.442Z,15.00
2019-04-07T08:28:41.336Z,15.00
2019-04-07T08:31:09.850Z,15.10
2019-04-07T08:33:38.536Z,15.30
2019-04-07T08:36:08.984Z,15.40
2019-04-07T08:38:36.651Z,15.50
2019-04-07T08:41:08.136Z,15.60
2019-04-07T08:43:34.211Z,15.60
2019-04-07T08:46:04.529Z,15.70
2019-04-07T08:48:32.212Z,15.80
2019-04-07T08:51:01.024Z,15.80
2019-04-07T08:53:29.452Z,15.90
2019-04-07T08:55:57.473Z,16.00
2019-04-07T08:58:28.744Z,16.20
2019-04-07T09:00:56.245Z,16.30
2019-04-07T09:03:24.156Z,16.20
2019-04-07T09:05:54.352Z,16.20
2019-04-07T09:08:21.699Z,16.30
2019-04-07T09:10:51.222Z,16.40
2019-04-07T09:13:19.733Z,16.50
2019-04-07T09:15:49.935Z,16.60
2019-04-07T09:18:34.633Z,16.70
2019-04-07T09:21:20.439Z,16.90
2019-04-07T09:23:50.591Z,17.00
2019-04-07T09:26:35.513Z,17.20
2019-04-07T09:29:05.182Z,17.40
2019-04-07T09:31:37.338Z,17.50
2019-04-07T09:34:12.878Z,17.80
2019-04-07T09:36:43.953Z,17.90
2019-04-07T09:39:16.641Z,18.00
2019-04-07T09:41:58.452Z,18.10
2019-04-07T09:44:28.958Z,18.30
2019-04-07T09:47:05.143Z,18.40
2019-04-07T09:49:48.437Z,18.50
2019-04-07T09:52:33.956Z,18.50
2019-04-07T09:55:13.009Z,18.60
2019-04-07T09:57:50.425Z,18.50
2019-04-07T10:00:23.935Z,18.40
2019-04-07T10:02:59.293Z,18.40
2019-04-07T10:05:40.974Z,18.30
2019-04-07T10:08:20.293Z,18.30
2019-04-07T10:10:49.984Z,18.40
2019-04-07T10:13:34.382Z,18.40
2019-04-07T10:16:08.861Z,18.50
2019-04-07T10:18:38.284Z,18.50
2019-04-07T10:21:07.884Z,18.60
2019-04-07T10:23:48.736Z,18.70
2019-04-07T10:26:33.698Z,18.80
2019-04-07T10:29:04.458Z,19.10
2019-04-07T10:31:34.941Z,19.20
2019-04-07T10:34:12.446Z,19.30
2019-04-07T10:36:53.306Z,19.20
2019-04-07T10:39:22.975Z,19.40
2019-04-07T10:41:53.202Z,19.50
2019-04-07T10:44:35.743Z,19.60
2019-04-07T10:47:05.992Z,19.80
2019-04-07T10:49:59.285Z,19.90
2019-04-07T10:52:26.057Z,20.10
2019-04-07T10:55:11.717Z,20.20
2019-04-07T10:57:41.435Z,20.20
2019-04-07T11:00:27.751Z,20.30
2019-04-07T11:03:13.754Z,20.20
2019-04-07T11:05:52.162Z,20.30
2019-04-07T11:08:33.881Z,20.40
2019-04-07T11:11:20.250Z,20.40
2019-04-07T11:13:53.429Z,20.50
2019-04-07T11:16:39.146Z,20.60
2019-04-07T11:19:27.903Z,20.60
2019-04-07T11:21:56.654Z,20.70
2019-04-07T11:24:43.323Z,20.80
2019-04-07T11:27:13.155Z,20.80
2019-04-07T11:29:45.537Z,20.90
2019-04-07T11:32:18.097Z,21.00
2019-04-07T11:34:53.603Z,20.80
2019-04-07T11:37:29.233Z,20.90
2019-04-07T11:40:02.236Z,20.90
2019-04-07T11:42:37.689Z,21.00
2019-04-07T11:45:11.571Z,21.00
2019-04-07T11:47:44.188Z,21.10
2019-04-07T11:50:19.842Z,21.30
2019-04-07T11:52:58.379Z,21.30
2019-04-07T11:55:33.783Z,21.40
2019-04-07T11:58:14.353Z,21.60
2019-04-07T12:00:51.408Z,21.50
2019-04-07T12:03:26.053Z,21.50
2019-04-07T12:06:14.277Z,21.60
2019-04-07T12:08:51.062Z,21.90
2019-04-07T12:11:36.907Z,21.90
2019-04-07T12:14:09.182Z,22.10
2019-04-07T12:16:44.823Z,22.20
2019-04-07T12:19:14.388Z,22.10
2019-04-07T12:21:53.011Z,22.00
2019-04-07T12:24:39.254Z,21.80
2019-04-07T12:27:10.842Z,21.80
2019-04-07T12:29:40.352Z,22.00
2019-04-07T12:32:13.090Z,22.00
2019-04-07T12:34:47.887Z,22.20
2019-04-07T12:37:16.525Z,22.20
2019-04-07T12:40:02.187Z,22.40
2019-04-07T12:42:47.069Z,22.40
2019-04-07T12:45:16.970Z,22.50
2019-04-07T12:47:52.847Z,22.40
2019-04-07T12:50:26.293Z,22.40
2019-04-07T12:53:08.079Z,22.40
2019-04-07T12:55:58.092Z,22.40
2019-04-07T12:58:25.490Z,22.40
2019-04-07T13:01:09.714Z,22.50
2019-04-07T13:03:49.810Z,22.80
2019-04-07T13:06:26.544Z,22.80
2019-04-07T13:09:04.687Z,22.60
2019-04-07T13:11:39.351Z,22.70
2019-04-07T13:14:12.092Z,22.70
2019-04-07T13:16:44.506Z,22.70
2019-04-07T13:19:15.435Z,22.70
2019-04-07T13:21:46.691Z,22.80
2019-04-07T13:24:28.840Z,22.90
2019-04-07T13:27:06.289Z,23.00
2019-04-07T13:29:35.990Z,23.30
2019-04-07T13:32:08.889Z,23.30
2019-04-07T13:34:49.761Z,23.20
2019-04-07T13:37:25.346Z,23.20
2019-04-07T13:40:12.975Z,23.20
2019-04-07T13:43:02.784Z,23.20
2019-04-07T13:45:33.023Z,23.10
2019-04-07T13:48:14.772Z,23.10
2019-04-07T13:50:43.771Z,23.20
2019-04-07T13:53:16.491Z,23.20
2019-04-07T13:55:52.073Z,23.20
2019-04-07T13:58:37.801Z,23.00
2019-04-07T14:01:10.721Z,23.10
2019-04-07T14:03:41.662Z,23.20
2019-04-07T14:06:14.568Z,23.30
2019-04-07T14:08:49.468Z,23.30
2019-04-07T14:11:33.993Z,23.50
2019-04-07T14:14:13.105Z,23.70
2019-04-07T14:16:52.812Z,24.00
2019-04-07T14:19:28.850Z,24.60
2019-04-07T14:22:15.497Z,25.20
2019-04-07T14:24:57.902Z,25.50
2019-04-07T14:27:27.437Z,25.80
2019-04-07T14:29:57.379Z,25.70
2019-04-07T14:32:41.786Z,25.70
2019-04-07T14:35:20.569Z,25.70
2019-04-07T14:38:08.907Z,26.20
2019-04-07T14:40:38.839Z,26.50
2019-04-07T14:43:14.671Z,26.70
2019-04-07T14:45:53.156Z,26.60
2019-04-07T14:48:39.077Z,26.70
2019-04-07T14:51:08.751Z,27.10
2019-04-07T14:53:38.307Z,26.80
2019-04-07T14:56:17.547Z,26.90
2019-04-07T14:58:59.217Z,26.80
2019-04-07T15:01:29.254Z,26.90
2019-04-07T15:03:57.215Z,27.10
2019-04-07T15:06:28.468Z,27.10
2019-04-07T15:09:01.194Z,27.10
2019-04-07T15:11:31.195Z,27.20
2019-04-07T15:14:00.719Z,27.30
2019-04-07T15:16:28.808Z,27.80
2019-04-07T15:18:56.758Z,27.60
2019-04-07T15:21:25.370Z,27.80
2019-04-07T15:23:56.207Z,27.80
2019-04-07T15:26:24.743Z,28.30
2019-04-07T15:28:54.312Z,28.10
2019-04-07T15:31:23.102Z,28.20
2019-04-07T15:33:51.659Z,28.40
2019-04-07T15:36:23.239Z,28.20
2019-04-07T15:38:51.154Z,28.40
2019-04-07T15:41:19.527Z,28.60
2019-04-07T15:43:47.482Z,28.30
2019-04-07T15:46:18.070Z,27.80
2019-04-07T15:48:45.408Z,27.40
2019-04-07T15:51:14.561Z,27.50
2019-04-07T15:53:44.611Z,27.60
2019-04-07T15:56:15.095Z,28.00
2019-04-07T15:58:41.963Z,27.70
2019-04-07T16:01:10.783Z,27.50
2019-04-07T16:03:39.991Z,28.10
2019-04-07T16:06:09.548Z,28.40
2019-04-07T16:08:38.304Z,28.40
2019-04-07T16:11:06.968Z,28.50
2019-04-07T16:13:35.826Z,27.80
2019-04-07T16:16:03.992Z,27.50
2019-04-07T16:18:31.994Z,27.80
2019-04-07T16:21:01.558Z,27.50
2019-04-07T16:23:30.349Z,27.40
2019-04-07T16:26:00.561Z,27.40
2019-04-07T16:28:28.095Z,27.20
2019-04-07T16:30:58.275Z,26.90
2019-04-07T16:33:26.216Z,26.70
2019-04-07T16:35:56.296Z,26.30
2019-04-07T16:38:24.221Z,26.00
2019-04-07T16:40:52.695Z,25.60
2019-04-07T16:43:20.673Z,25.70
2019-04-07T16:45:48.644Z,25.40
2019-04-07T16:48:16.547Z,25.20
2019-04-07T16:50:45.156Z,24.80
2019-04-07T16:53:13.919Z,24.40
2019-04-07T16:55:47.599Z,24.30
2019-04-07T16:58:14.244Z,23.90
2019-04-07T17:00:42.616Z,23.60
2019-04-07T17:03:10.691Z,23.40
2019-04-07T17:05:39.671Z,23.20
2019-04-07T17:08:08.583Z,23.00
2019-04-07T17:10:37.021Z,22.70
2019-04-07T17:13:14.646Z,22.60
2019-04-07T17:15:38.431Z,22.40
2019-04-07T17:18:07.594Z,22.50
2019-04-07T17:20:37.678Z,22.40
2019-04-07T17:23:05.050Z,22.20
2019-04-07T17:25:34.526Z,21.90
2019-04-07T17:28:04.055Z,21.40
2019-04-07T17:30:32.423Z,21.00
2019-04-07T17:33:00.384Z,20.60
2019-04-07T17:35:28.510Z,20.20
2019-04-07T17:38:02.499Z,19.80
2019-04-07T17:40:29.626Z,19.50
2019-04-07T17:42:59.192Z,19.20
2019-04-07T17:45:45.162Z,18.90
2019-04-07T17:48:21.363Z,18.50
2019-04-07T17:50:56.460Z,18.30
2019-04-07T17:53:38.223Z,18.00
2019-04-07T17:56:08.719Z,17.90
2019-04-07T17:58:51.302Z,17.70
2019-04-07T18:01:23.843Z,17.50
2019-04-07T18:04:00.911Z,17.30
2019-04-07T18:06:37.458Z,17.10
2019-04-07T18:09:12.052Z,16.90
2019-04-07T18:12:01.905Z,16.70
2019-04-07T18:14:45.809Z,16.50
2019-04-07T18:17:16.220Z,16.40
2019-04-07T18:19:59.493Z,16.20
2019-04-07T18:22:31.428Z,16.20
2019-04-07T18:25:02.784Z,16.10
2019-04-07T18:27:36.196Z,16.00
2019-04-07T18:30:10.272Z,15.80
2019-04-07T18:32:55.614Z,15.80
2019-04-07T18:35:37.718Z,15.60
2019-04-07T18:38:25.674Z,15.50
2019-04-07T18:41:02.293Z,15.40
2019-04-07T18:43:50.695Z,15.20
2019-04-07T18:46:30.180Z,15.10
2019-04-07T18:49:05.084Z,15.00
2019-04-07T18:51:52.054Z,14.80
2019-04-07T18:54:30.767Z,14.70
2019-04-07T18:57:16.629Z,14.60
2019-04-07T18:59:55.405Z,14.60
2019-04-07T19:02:31.900Z,14.40
2019-04-07T19:05:05.081Z,14.30
2019-04-07T19:07:41.659Z,14.30
2019-04-07T19:16:10.983Z,14.10
2019-04-07T19:22:06.720Z,13.90
2019-04-07T19:24:46.273Z,13.80
2019-04-07T19:27:37.432Z,13.70
2019-04-07T19:30:16.709Z,13.70
2019-04-07T19:32:58.271Z,13.60
2019-04-07T19:35:44.658Z,13.50
2019-04-07T19:38:22.436Z,13.40
2019-04-07T19:40:54.083Z,13.40
2019-04-07T19:43:29.524Z,13.30
2019-04-07T19:46:14.617Z,13.20
2019-04-07T19:48:44.941Z,13.10
2019-04-07T19:51:31.032Z,13.00
2019-04-07T19:54:19.037Z,12.90
2019-04-07T19:57:05.214Z,12.80
2019-04-07T19:59:46.871Z,12.70
2019-04-07T20:02:25.440Z,12.60
2019-04-07T20:04:55.062Z,12.50
2019-04-07T20:07:36.618Z,12.40
2019-04-07T20:10:16.476Z,12.30
2019-04-07T20:12:56.349Z,12.20
2019-04-07T20:15:26.096Z,12.00
2019-04-07T20:17:58.792Z,12.00
2019-04-07T20:20:44.923Z,12.00
2019-04-07T20:23:18.457Z,12.00
2019-04-07T20:26:01.624Z,11.90
2019-04-07T20:28:37.873Z,11.90
2019-04-07T20:31:24.189Z,11.80
2019-04-07T20:33:53.906Z,11.80
2019-04-07T20:36:29.582Z,11.70
2019-04-07T20:39:02.156Z,11.70
2019-04-07T20:41:48.054Z,11.60
2019-04-07T20:44:32.373Z,11.50
2019-04-07T20:47:09.617Z,11.40
2019-04-07T20:49:41.201Z,11.40
2019-04-07T20:52:15.360Z,11.30
2019-04-07T20:55:04.756Z,11.20
2019-04-07T20:57:36.475Z,11.10
2019-04-07T21:00:23.644Z,11.10
2019-04-07T21:03:19.539Z,11.00
2019-04-07T21:05:44.303Z,10.90
2019-04-07T21:08:33.247Z,10.80
2019-04-07T21:11:08.524Z,10.70
2019-04-07T21:13:56.665Z,10.60
2019-04-07T21:16:43.228Z,10.60
2019-04-07T21:19:29.207Z,10.50
2019-04-07T21:22:16.999Z,10.50
2019-04-07T21:24:51.388Z,10.40
2019-04-07T21:27:20.651Z,10.40
2019-04-07T21:29:50.454Z,10.40
2019-04-07T21:32:25.635Z,10.40
2019-04-07T21:35:11.517Z,10.40
2019-04-07T21:38:03.900Z,10.30
2019-04-07T21:43:32.192Z,10.30
2019-04-07T21:46:20.262Z,10.30
2019-04-07T21:48:53.110Z,10.20
2019-04-07T21:51:29.029Z,10.20
2019-04-07T21:54:02.697Z,10.10
2019-04-07T21:56:32.820Z,10.10
2019-04-07T21:59:18.559Z,10.00
2019-04-07T22:02:09.132Z,10.00
2019-04-07T22:04:38.512Z,9.90
2019-04-07T22:07:29.667Z,9.80
2019-04-07T22:10:05.962Z,9.80
2019-04-07T22:12:33.987Z,9.80
2019-04-07T22:15:02.423Z,9.70
2019-04-07T22:17:34.178Z,9.70
2019-04-07T22:20:00.592Z,9.70
2019-04-07T22:22:29.062Z,9.60
2019-04-07T22:24:57.983Z,9.60
2019-04-07T22:27:27.313Z,9.60
2019-04-07T22:29:55.499Z,9.60
2019-04-07T22:32:24.371Z,9.50
2019-04-07T22:34:52.515Z,9.50
2019-04-07T22:37:22.118Z,9.60
2019-04-07T22:39:51.021Z,9.60
2019-04-07T22:42:19.268Z,9.70
2019-04-07T22:44:47.422Z,9.60
2019-04-07T22:47:15.937Z,9.70
2019-04-07T22:49:45.150Z,9.70
2019-04-07T22:52:16.054Z,9.70
2019-04-07T22:54:42.605Z,9.60
2019-04-07T22:57:13.091Z,9.50
2019-04-07T22:59:40.072Z,9.40
2019-04-07T23:02:07.990Z,9.30
2019-04-07T23:04:36.368Z,9.30
2019-04-07T23:07:04.505Z,9.20
2019-04-07T23:09:33.437Z,9.30
2019-04-07T23:12:02.201Z,9.20
2019-04-07T23:14:31.689Z,9.20
2019-04-07T23:17:00.435Z,9.20
2019-04-07T23:19:29.065Z,9.10
2019-04-07T23:21:57.579Z,9.10
2019-04-07T23:24:25.393Z,9.00
2019-04-07T23:26:54.177Z,9.00
2019-04-07T23:29:22.252Z,9.00
2019-04-07T23:31:50.213Z,8.90
2019-04-07T23:34:18.970Z,8.80
2019-04-07T23:36:47.849Z,8.80
2019-04-07T23:39:15.822Z,8.70
2019-04-07T23:41:54.028Z,8.70
2019-04-07T23:47:53.427Z,8.60
2019-04-07T23:53:47.093Z,8.50
2019-04-07T23:56:15.672Z,8.40
2019-04-07T23:58:43.752Z,8.40
